Terminal Aerodrome Forecast
Issued by NWS Chicago, IL

Home | Current Version | Previous Version | Graphics & Text | Print | Product List | Glossary On
Versions: 1 2 3 4 5 6 7 8 9 10 11 12 13 14 15 16 17 18 19 20 21 22 23 24 25 26 27 28 29 30
000
FTUS43 KLOT 171413 AAA
TAFRFD
TAF AMD
KRFD 171413Z 1714/1812 20011KT P6SM SCT007 OVC018
      TEMPO 1714/1715 BKN007
     FM171500 22012G20KT P6SM SCT020 BKN035
     FM171700 25018G27KT P6SM BKN050
     FM180100 27010KT P6SM BKN050=

USA.gov is the U.S. government's official web portal to all federal, state and local government web resources and services.